Terminal Aerodrome Forecast
Issued by NWS

Home | Current Version | Previous Version | Text Only | Print | Product List | Glossary On
Versions: 1 2 3 4 5 6 7 8 9 10 11 12 13 14 15 16 17 18 19 20 21 22 23 24 25 26
000
FTUS44 KEWX 020327 AAA
TAFSSF
TAF AMD
KSSF 020327Z 0203/0224 14008KT P6SM BKN015
     FM020600 15008KT P6SM OVC008
     FM021300 16010KT P6SM OVC012
     FM021500 15011KT P6SM BKN025
     FM021900 16012KT P6SM BKN035=

USA.gov is the U.S. government's official web portal to all federal, state and local government web resources and services.